createdAt,value
2023-05-15T05:08:02.284Z,14.97
2023-05-15T05:10:34.787Z,14.17
2023-05-15T05:13:03.112Z,17.17
2023-05-15T05:15:34.656Z,11.67
2023-05-15T05:18:03.601Z,8.73
2023-05-15T05:26:23.946Z,14.37
2023-05-15T05:28:54.666Z,13.90
2023-05-15T05:31:23.267Z,17.43
2023-05-15T05:37:41.561Z,15.93
2023-05-15T05:40:52.014Z,16.57
2023-05-15T05:43:24.182Z,14.70
2023-05-15T05:46:23.122Z,13.77
2023-05-15T05:48:54.493Z,15.00
2023-05-15T05:51:23.348Z,13.17
2023-05-15T05:54:24.839Z,13.80
2023-05-15T05:56:53.634Z,14.40
2023-05-15T06:06:41.821Z,14.27
2023-05-15T06:13:35.301Z,12.20
2023-05-15T06:16:04.451Z,14.03
2023-05-15T06:18:33.047Z,13.30
2023-05-15T06:21:05.072Z,12.80
2023-05-15T06:23:33.675Z,13.20
2023-05-15T06:26:16.681Z,13.07
2023-05-15T06:28:44.576Z,14.40
2023-05-15T06:31:12.765Z,11.50
2023-05-15T06:33:40.640Z,13.93
2023-05-15T06:36:08.933Z,13.77
2023-05-15T06:38:38.186Z,16.07
2023-05-15T06:41:06.637Z,13.27
2023-05-15T06:43:36.423Z,14.53
2023-05-15T06:46:05.455Z,15.80
2023-05-15T06:48:33.866Z,17.50
2023-05-15T06:51:01.979Z,16.03
2023-05-15T06:53:33.057Z,16.87
2023-05-15T06:56:49.459Z,18.13
2023-05-15T06:59:16.898Z,19.33
2023-05-15T07:01:44.498Z,17.97
2023-05-15T07:04:15.137Z,19.10
2023-05-15T07:06:42.967Z,19.80
2023-05-15T07:09:10.832Z,20.73
2023-05-15T07:11:38.971Z,19.83
2023-05-15T07:14:07.902Z,20.47
2023-05-15T07:16:35.910Z,21.03
2023-05-15T07:19:09.972Z,21.70
2023-05-15T07:21:58.464Z,24.30
2023-05-15T07:24:26.868Z,25.07
2023-05-15T07:26:58.606Z,21.77
2023-05-15T07:29:26.784Z,18.27
2023-05-15T07:32:11.792Z,17.20
2023-05-15T07:34:40.040Z,21.90
2023-05-15T07:37:14.909Z,19.80
2023-05-15T07:42:13.806Z,20.03
2023-05-15T07:44:43.089Z,16.77
2023-05-15T07:47:12.234Z,17.00
2023-05-15T07:49:40.218Z,17.93
2023-05-15T07:52:08.668Z,12.83
2023-05-15T07:54:36.940Z,15.67
2023-05-15T07:57:05.987Z,14.57
2023-05-15T07:59:33.868Z,14.17
2023-05-15T08:02:01.897Z,13.77
2023-05-15T08:04:29.497Z,14.03
2023-05-15T08:06:57.196Z,11.40
2023-05-15T08:09:24.863Z,12.37
2023-05-15T08:11:52.908Z,16.63
2023-05-15T08:14:20.792Z,12.80
2023-05-15T08:16:50.340Z,11.63
2023-05-15T08:19:18.176Z,12.90
2023-05-15T08:21:45.796Z,9.53
2023-05-15T08:24:14.452Z,11.77
2023-05-15T08:26:42.325Z,7.33
2023-05-15T08:29:10.280Z,8.43
2023-05-15T08:31:38.306Z,5.87
2023-05-15T08:34:05.919Z,4.90
2023-05-15T08:36:34.076Z,7.63
2023-05-15T08:39:01.860Z,8.83
2023-05-15T08:41:39.869Z,5.20
2023-05-15T08:44:07.875Z,6.57
2023-05-15T08:46:35.962Z,6.23
2023-05-15T08:49:42.292Z,6.33
2023-05-15T08:52:10.028Z,6.43
2023-05-15T08:54:37.246Z,5.57
2023-05-15T08:57:05.487Z,5.53
2023-05-15T08:59:33.437Z,6.00
2023-05-15T09:02:01.192Z,6.23
2023-05-15T09:04:28.701Z,7.93
2023-05-15T09:06:56.624Z,6.30
2023-05-15T09:09:24.703Z,6.23
2023-05-15T09:11:51.747Z,6.53
2023-05-15T09:14:20.117Z,6.27
2023-05-15T09:16:49.847Z,6.20
2023-05-15T09:19:16.699Z,16.83
2023-05-15T09:21:44.981Z,7.77
2023-05-15T09:24:22.913Z,5.40
2023-05-15T09:27:26.421Z,7.23
2023-05-15T09:29:56.502Z,5.47
2023-05-15T09:32:24.242Z,7.50
2023-05-15T09:34:51.845Z,6.57
2023-05-15T09:37:30.064Z,6.47
2023-05-15T09:40:00.641Z,7.10
2023-05-15T09:42:28.506Z,7.43
2023-05-15T09:44:56.645Z,10.60
2023-05-15T09:47:24.689Z,7.40
2023-05-15T09:49:52.784Z,8.07
2023-05-15T09:52:22.071Z,7.43
2023-05-15T09:54:50.665Z,10.63
2023-05-15T09:57:22.129Z,7.10
2023-05-15T09:59:50.181Z,11.43
2023-05-15T10:02:35.129Z,9.17
2023-05-15T10:05:03.179Z,6.60
2023-05-15T10:07:33.652Z,7.23
2023-05-15T10:10:02.832Z,6.63
2023-05-15T10:12:31.316Z,13.20
2023-05-15T10:14:59.446Z,6.30
2023-05-15T10:17:29.719Z,6.20
2023-05-15T10:19:58.921Z,7.33
2023-05-15T10:22:42.476Z,7.07
2023-05-15T10:25:32.357Z,7.80
2023-05-15T10:28:00.199Z,22.77
2023-05-15T10:30:28.171Z,8.27
2023-05-15T10:32:55.765Z,7.23
2023-05-15T10:35:23.504Z,7.87
2023-05-15T10:37:51.014Z,10.10
2023-05-15T10:40:18.644Z,11.53
2023-05-15T10:42:47.641Z,77.80
2023-05-15T10:45:15.327Z,9.87
2023-05-15T10:47:43.462Z,7.67
2023-05-15T10:53:13.581Z,6.37
2023-05-15T10:55:48.417Z,6.27
2023-05-15T10:58:16.649Z,7.97
2023-05-15T11:00:47.153Z,7.13
2023-05-15T11:03:47.835Z,5.93
2023-05-15T11:06:18.039Z,5.87
2023-05-15T11:08:46.005Z,8.77
2023-05-15T11:11:50.303Z,8.73
2023-05-15T11:14:22.873Z,6.33
2023-05-15T11:16:55.866Z,5.90
2023-05-15T11:19:29.339Z,7.90
2023-05-15T11:22:04.194Z,7.10
2023-05-15T11:24:50.441Z,6.72
2023-05-15T11:27:24.413Z,5.25
2023-05-15T11:30:20.095Z,11.15
2023-05-15T11:32:52.019Z,7.80
2023-05-15T11:35:23.765Z,4.22
2023-05-15T11:37:59.341Z,6.07
2023-05-15T11:40:27.710Z,4.37
2023-05-15T11:43:10.652Z,5.50
2023-05-15T11:45:38.442Z,4.65
2023-05-15T11:48:08.724Z,5.32
2023-05-15T11:50:35.881Z,4.35
2023-05-15T11:53:07.196Z,4.50
2023-05-15T11:55:35.387Z,5.22
2023-05-15T11:58:04.329Z,5.03
2023-05-15T12:00:31.715Z,4.20
2023-05-15T12:03:00.379Z,4.32
2023-05-15T12:05:28.308Z,3.33
2023-05-15T12:07:56.310Z,3.60
2023-05-15T12:10:24.612Z,3.65
2023-05-15T12:12:52.842Z,3.85
2023-05-15T12:15:20.918Z,3.53
2023-05-15T12:17:48.855Z,3.22
2023-05-15T12:20:19.680Z,4.70
2023-05-15T12:22:47.609Z,2.53
2023-05-15T12:25:15.597Z,3.33
2023-05-15T12:27:43.083Z,3.35
2023-05-15T12:30:11.077Z,2.50
2023-05-15T12:32:38.293Z,2.20
2023-05-15T12:35:07.001Z,2.42
2023-05-15T12:37:35.435Z,3.45
2023-05-15T12:40:10.128Z,2.47
2023-05-15T12:42:43.596Z,2.38
2023-05-15T12:45:18.151Z,4.13
2023-05-15T12:47:49.058Z,2.33
2023-05-15T12:50:18.492Z,2.92
2023-05-15T12:52:55.961Z,2.47
2023-05-15T12:55:33.613Z,2.15
2023-05-15T12:58:02.681Z,2.55
2023-05-15T13:00:30.121Z,2.45
2023-05-15T13:02:58.280Z,2.15
2023-05-15T13:05:30.114Z,1.70
2023-05-15T13:07:59.176Z,2.38
2023-05-15T13:10:27.363Z,2.55
2023-05-15T13:12:56.783Z,3.22
2023-05-15T13:15:37.436Z,1.10
2023-05-15T13:18:05.570Z,2.13
2023-05-15T13:20:35.257Z,2.58
2023-05-15T13:23:02.787Z,1.35
2023-05-15T13:25:31.904Z,2.85
2023-05-15T13:28:00.798Z,2.25
2023-05-15T13:30:29.255Z,2.38
2023-05-15T13:32:57.306Z,1.52
2023-05-15T13:35:24.878Z,1.55
2023-05-15T13:37:52.616Z,2.05
2023-05-15T13:40:20.112Z,2.42
2023-05-15T13:42:47.923Z,1.65
2023-05-15T13:45:16.583Z,3.55
2023-05-15T13:47:44.804Z,2.63
2023-05-15T13:50:13.221Z,1.58
2023-05-15T13:52:41.400Z,2.60
2023-05-15T13:55:11.032Z,1.75
2023-05-15T13:57:39.176Z,2.80
2023-05-15T14:00:29.812Z,2.67
2023-05-15T14:02:57.780Z,2.67
2023-05-15T14:05:25.302Z,3.03
2023-05-15T14:07:53.248Z,1.10
2023-05-15T14:10:21.123Z,1.10
2023-05-15T14:12:48.600Z,1.58
2023-05-15T14:15:16.000Z,1.38
2023-05-15T14:17:48.801Z,1.45
2023-05-15T14:20:16.924Z,1.77
2023-05-15T14:22:45.032Z,1.48
2023-05-15T14:25:12.628Z,2.22
2023-05-15T14:27:40.670Z,1.77
2023-05-15T14:30:10.630Z,1.35
2023-05-15T14:32:38.616Z,1.52
2023-05-15T14:35:10.491Z,5.25
2023-05-15T14:37:38.524Z,1.15
2023-05-15T14:40:09.056Z,1.33
2023-05-15T14:42:37.027Z,2.50
2023-05-15T14:45:05.526Z,1.02
2023-05-15T14:47:33.804Z,0.70
2023-05-15T14:50:01.428Z,2.50
2023-05-15T14:52:29.710Z,1.30
2023-05-15T14:55:08.661Z,1.48
2023-05-15T14:57:37.228Z,2.20
2023-05-15T15:00:07.495Z,1.20
2023-05-15T15:02:35.795Z,3.75
2023-05-15T15:05:04.607Z,1.50
2023-05-15T15:07:31.989Z,1.80
2023-05-15T15:10:00.478Z,1.05
2023-05-15T15:12:28.075Z,1.20
2023-05-15T15:14:56.129Z,1.35
2023-05-15T15:17:23.994Z,0.93
2023-05-15T15:19:51.508Z,3.00
2023-05-15T15:22:19.172Z,1.55
2023-05-15T15:24:47.179Z,1.17
2023-05-15T15:27:15.129Z,1.00
2023-05-15T15:29:43.127Z,1.25
2023-05-15T15:32:11.066Z,2.08
2023-05-15T15:34:38.589Z,0.95
2023-05-15T15:37:06.229Z,1.45
2023-05-15T15:39:34.221Z,0.98
2023-05-15T15:42:03.440Z,1.58
2023-05-15T15:44:34.835Z,1.20
2023-05-15T15:47:02.380Z,0.95
2023-05-15T15:49:30.732Z,1.08
2023-05-15T15:51:58.960Z,0.90
2023-05-15T15:54:25.994Z,1.20
2023-05-15T15:56:53.937Z,0.63
2023-05-15T16:01:50.156Z,1.02
2023-05-15T16:04:17.718Z,2.05
2023-05-15T16:06:45.705Z,1.92
2023-05-15T16:09:13.272Z,2.15
2023-05-15T16:11:40.768Z,1.70
2023-05-15T16:14:08.715Z,1.80
2023-05-15T16:16:37.181Z,1.40
2023-05-15T16:19:05.186Z,1.50
2023-05-15T16:21:33.180Z,0.65
2023-05-15T16:24:00.977Z,1.10
2023-05-15T16:26:28.960Z,1.42
2023-05-15T16:28:57.140Z,0.68
2023-05-15T16:31:24.441Z,1.88
2023-05-15T16:33:52.434Z,1.42
2023-05-15T16:36:20.962Z,3.67
2023-05-15T16:38:48.907Z,2.03
2023-05-15T16:41:16.972Z,0.88
2023-05-15T16:43:44.501Z,0.77
2023-05-15T16:46:12.544Z,0.68
2023-05-15T16:48:40.613Z,0.68
2023-05-15T16:51:08.667Z,0.60
2023-05-15T16:53:36.557Z,0.88
2023-05-15T16:56:04.663Z,0.65
2023-05-15T16:58:32.624Z,1.80
2023-05-15T17:01:00.482Z,1.25
2023-05-15T17:03:28.046Z,2.20
2023-05-15T17:05:55.718Z,1.20
2023-05-15T17:08:23.666Z,0.50
2023-05-15T17:10:51.351Z,0.70
2023-05-15T17:13:19.544Z,1.77
2023-05-15T17:15:49.802Z,4.55
2023-05-15T17:18:17.945Z,6.00
2023-05-15T17:20:45.387Z,4.43
2023-05-15T17:23:13.169Z,2.80
2023-05-15T17:25:40.968Z,2.65
2023-05-15T17:28:08.755Z,2.08
2023-05-15T17:30:36.499Z,5.72
2023-05-15T17:33:04.814Z,3.28
2023-05-15T17:35:33.244Z,2.10
2023-05-15T17:38:01.226Z,4.40
2023-05-15T17:40:28.916Z,3.97
2023-05-15T17:42:56.430Z,3.95
2023-05-15T17:45:24.297Z,6.97
2023-05-15T17:47:53.378Z,3.72
2023-05-15T17:50:20.961Z,4.87
2023-05-15T17:52:48.425Z,26.37
2023-05-15T17:55:16.319Z,7.03
2023-05-15T17:57:44.267Z,4.60
2023-05-15T18:00:14.806Z,5.57
2023-05-15T18:02:42.271Z,4.37
2023-05-15T18:05:10.503Z,6.53
2023-05-15T18:07:38.580Z,4.57
2023-05-15T18:10:09.817Z,2.83
2023-05-15T18:12:37.380Z,2.10
2023-05-15T18:15:06.370Z,2.30
2023-05-15T18:17:33.907Z,5.30
2023-05-15T18:20:01.940Z,3.00
2023-05-15T18:22:30.009Z,5.82
2023-05-15T18:24:57.992Z,5.03
2023-05-15T18:27:26.379Z,2.60
2023-05-15T18:29:54.490Z,5.83
2023-05-15T18:32:21.830Z,3.23
2023-05-15T18:34:49.890Z,4.63
2023-05-15T18:37:18.293Z,7.97
2023-05-15T18:39:45.904Z,3.73
2023-05-15T18:42:13.811Z,6.10
2023-05-15T18:44:41.407Z,3.90
2023-05-15T18:47:08.978Z,3.97
2023-05-15T18:49:36.555Z,4.53
2023-05-15T18:52:05.788Z,3.77
2023-05-15T18:54:34.009Z,3.83
2023-05-15T18:57:02.714Z,4.27
2023-05-15T18:59:30.688Z,5.37
2023-05-15T19:02:12.300Z,5.70
2023-05-15T19:04:41.057Z,6.13
2023-05-15T19:07:08.726Z,4.37
2023-05-15T19:09:36.710Z,5.13
2023-05-15T19:12:05.402Z,4.13
2023-05-15T19:14:33.519Z,4.17
2023-05-15T19:17:02.139Z,10.07
2023-05-15T19:19:30.452Z,4.20
2023-05-15T19:21:58.087Z,6.20
2023-05-15T19:24:25.622Z,4.43
2023-05-15T19:26:53.990Z,5.60
2023-05-15T19:29:21.762Z,5.83
2023-05-15T19:31:49.827Z,5.87
2023-05-15T19:34:17.847Z,4.23
2023-05-15T19:36:49.159Z,4.13
2023-05-15T19:39:17.363Z,6.13
2023-05-15T19:41:52.651Z,4.50
2023-05-15T19:44:22.117Z,5.03
2023-05-15T20:07:01.379Z,5.60
2023-05-15T20:21:50.872Z,7.70
2023-05-15T20:24:25.910Z,4.70
2023-05-15T20:37:56.655Z,6.33
2023-05-15T20:40:29.125Z,2.93
2023-05-15T20:48:30.487Z,1.70
2023-05-15T20:50:59.650Z,4.27
2023-05-15T20:53:29.116Z,5.37
2023-05-15T20:55:59.037Z,2.73
2023-05-15T20:58:27.276Z,1.43
2023-05-15T21:00:55.182Z,3.50
2023-05-15T21:03:23.396Z,1.33
2023-05-15T21:05:51.268Z,2.07
2023-05-15T21:08:19.359Z,2.37
2023-05-15T21:10:51.240Z,1.47
2023-05-15T21:13:19.702Z,2.67
2023-05-15T21:15:48.448Z,1.57
2023-05-15T21:18:17.730Z,1.70
2023-05-15T21:20:46.297Z,3.67
2023-05-15T21:23:17.743Z,2.27
2023-05-15T21:25:46.416Z,6.97
2023-05-15T21:28:14.800Z,2.10
2023-05-15T21:30:43.350Z,4.83
2023-05-15T21:33:11.689Z,1.13
2023-05-15T21:35:39.913Z,1.33
2023-05-15T21:38:08.041Z,1.43
2023-05-15T21:40:37.497Z,1.80
2023-05-15T21:43:05.865Z,1.50
2023-05-15T21:45:34.655Z,2.90
2023-05-15T21:48:03.000Z,2.97
2023-05-15T21:50:31.515Z,2.40
2023-05-15T21:53:00.634Z,3.93
2023-05-15T21:55:28.981Z,3.20
2023-05-15T21:58:00.878Z,3.00
2023-05-15T22:00:29.145Z,1.00
2023-05-15T22:02:57.973Z,2.83
2023-05-15T22:05:27.185Z,1.97
2023-05-15T22:07:55.990Z,2.13
2023-05-15T22:10:26.019Z,4.93
2023-05-15T22:12:54.438Z,1.57
2023-05-15T22:15:22.886Z,1.57
2023-05-15T22:18:02.794Z,3.07
2023-05-15T22:23:28.529Z,3.67
2023-05-15T22:26:00.331Z,4.17
2023-05-15T22:28:29.307Z,2.03
2023-05-15T22:31:01.629Z,1.77
2023-05-15T22:33:29.401Z,2.53
2023-05-15T22:36:43.210Z,3.23
2023-05-15T22:39:47.272Z,1.30
2023-05-15T22:42:19.395Z,4.97
2023-05-15T22:44:48.502Z,2.37
2023-05-15T22:52:59.647Z,0.90
2023-05-15T22:55:33.376Z,2.93
2023-05-15T22:58:01.546Z,2.07
2023-05-15T23:00:30.073Z,1.07
2023-05-15T23:02:58.054Z,1.00
2023-05-15T23:05:25.925Z,0.97
2023-05-15T23:07:53.427Z,0.57
2023-05-15T23:10:20.842Z,0.93
2023-05-15T23:12:49.039Z,0.63
2023-05-15T23:15:16.738Z,4.20
2023-05-15T23:17:44.919Z,0.40
2023-05-15T23:20:14.612Z,1.10
2023-05-15T23:22:42.224Z,1.00
2023-05-15T23:25:11.985Z,1.83
2023-05-15T23:27:39.951Z,4.10
2023-05-15T23:30:10.580Z,1.13
2023-05-15T23:32:38.483Z,0.53
2023-05-15T23:35:08.088Z,0.60
2023-05-15T23:37:36.217Z,0.57
2023-05-15T23:40:06.273Z,1.13
2023-05-15T23:42:34.599Z,1.13
2023-05-15T23:45:02.525Z,1.67
2023-05-15T23:47:30.403Z,2.10
2023-05-15T23:50:02.937Z,1.53
2023-05-15T23:52:30.669Z,1.23
2023-05-15T23:55:00.823Z,3.83
2023-05-15T23:57:28.994Z,0.83
2023-05-15T23:59:57.776Z,0.73
